Log in Register

Login to your account

Username *
Password *
Remember Me

Create an account

Fields marked with an asterisk (*) are required.
Name *
Username *
Password *
Verify password *
Email *
Verify email *
Captcha *
C'est avec un grand plaisir que nous venons de réceptionner à l'Aéroclub de Savoie conjointement avec le CLAP et avec l'aide de la FFA un avion électrique Pipistrel VELIS !!
C'est parti pour des vols silencieux et sans essence !
 
Les vols de découverte et le début de formation sur cet avion novateur sont possibles !
 
 
 
20220301 170826
 

Nous contacter

 Téléphone : +33 (0)4 79 54 41 81

Coordonnées détaillées et accès : cliquez ici

facebook 770688 960 720  logo instagram large

[source: ADDS]
METAR / TAF
LFLB 260030Z AUTO 35010KT CAVOK 17/08 Q1023 =
TAF LFLB 251400Z 2515/2615 36010KT CAVOK TEMPO 2515/2522 BKN060

SR / SS: 03:54 / 19:12 UTC (Lever/Coucher du soleil le 2022-05-26)
JSN Boot template designed by JoomlaShine.com